sensor_id;sensor_type;location;lat;lon;timestamp;pressure;altitude;pressure_sealevel;temperature;humidity
34205;BME280;20471;49.680;20.074;2022-12-18T00:01:24;98439.67;;;-4.84;76.26
34205;BME280;20471;49.680;20.074;2022-12-18T00:03:54;98443.88;;;-4.89;76.15
34205;BME280;20471;49.680;20.074;2022-12-18T00:06:22;98451.41;;;-4.90;76.10
34205;BME280;20471;49.680;20.074;2022-12-18T00:08:51;98453.66;;;-4.91;76.17
34205;BME280;20471;49.680;20.074;2022-12-18T00:13:49;98463.47;;;-4.79;76.29
34205;BME280;20471;49.680;20.074;2022-12-18T00:16:19;98472.13;;;-4.77;76.21
34205;BME280;20471;49.680;20.074;2022-12-18T00:21:16;98476.30;;;-4.65;76.25
34205;BME280;20471;49.680;20.074;2022-12-18T00:23:44;98482.67;;;-4.69;76.04
34205;BME280;20471;49.680;20.074;2022-12-18T00:26:19;98481.73;;;-4.68;76.17
34205;BME280;20471;49.680;20.074;2022-12-18T00:28:49;98483.17;;;-4.63;76.22
34205;BME280;20471;49.680;20.074;2022-12-18T00:31:19;98489.77;;;-4.56;76.18
34205;BME280;20471;49.680;20.074;2022-12-18T00:33:47;98489.85;;;-4.57;76.08
34205;BME280;20471;49.680;20.074;2022-12-18T00:36:17;98483.64;;;-4.56;76.11
34205;BME280;20471;49.680;20.074;2022-12-18T00:38:46;98489.12;;;-4.52;76.11
34205;BME280;20471;49.680;20.074;2022-12-18T00:41:14;98502.51;;;-4.48;76.03
34205;BME280;20471;49.680;20.074;2022-12-18T00:44:01;98503.82;;;-4.48;75.95
34205;BME280;20471;49.680;20.074;2022-12-18T00:46:28;98508.80;;;-4.51;75.92
34205;BME280;20471;49.680;20.074;2022-12-18T00:48:55;98512.11;;;-4.47;75.99
34205;BME280;20471;49.680;20.074;2022-12-18T00:51:22;98518.41;;;-4.43;76.00
34205;BME280;20471;49.680;20.074;2022-12-18T00:53:50;98524.81;;;-4.40;75.95
34205;BME280;20471;49.680;20.074;2022-12-18T00:56:16;98528.48;;;-4.42;75.86
34205;BME280;20471;49.680;20.074;2022-12-18T00:58:43;98534.30;;;-4.44;75.83
34205;BME280;20471;49.680;20.074;2022-12-18T01:01:10;98532.05;;;-4.43;75.88
34205;BME280;20471;49.680;20.074;2022-12-18T01:03:36;98536.21;;;-4.39;75.93
34205;BME280;20471;49.680;20.074;2022-12-18T01:06:07;98533.48;;;-4.38;75.86
34205;BME280;20471;49.680;20.074;2022-12-18T01:08:35;98539.70;;;-4.39;75.72
34205;BME280;20471;49.680;20.074;2022-12-18T01:13:38;98541.45;;;-4.46;75.86
34205;BME280;20471;49.680;20.074;2022-12-18T01:16:05;98546.16;;;-4.44;75.81
34205;BME280;20471;49.680;20.074;2022-12-18T01:18:32;98547.56;;;-4.53;75.70
34205;BME280;20471;49.680;20.074;2022-12-18T01:20:59;98553.86;;;-4.55;75.77
34205;BME280;20471;49.680;20.074;2022-12-18T01:23:26;98552.92;;;-4.54;75.84
34205;BME280;20471;49.680;20.074;2022-12-18T01:25:53;98557.73;;;-4.47;75.84
34205;BME280;20471;49.680;20.074;2022-12-18T01:28:20;98550.50;;;-4.43;75.83
34205;BME280;20471;49.680;20.074;2022-12-18T01:30:46;98554.37;;;-4.42;75.81
34205;BME280;20471;49.680;20.074;2022-12-18T01:33:13;98555.13;;;-4.40;75.70
34205;BME280;20471;49.680;20.074;2022-12-18T01:35:41;98559.94;;;-4.39;75.68
34205;BME280;20471;49.680;20.074;2022-12-18T01:38:08;98560.70;;;-4.37;75.66
34205;BME280;20471;49.680;20.074;2022-12-18T01:40:35;98564.27;;;-4.38;75.60
34205;BME280;20471;49.680;20.074;2022-12-18T01:43:02;98559.76;;;-4.36;75.64
34205;BME280;20471;49.680;20.074;2022-12-18T01:45:31;98566.81;;;-4.37;75.51
34205;BME280;20471;49.680;20.074;2022-12-18T01:48:03;98568.78;;;-4.40;75.47
34205;BME280;20471;49.680;20.074;2022-12-18T01:50:36;98570.09;;;-4.47;75.39
34205;BME280;20471;49.680;20.074;2022-12-18T01:55:47;98576.66;;;-4.70;75.23
34205;BME280;20471;49.680;20.074;2022-12-18T01:58:17;98578.66;;;-4.74;75.54
34205;BME280;20471;49.680;20.074;2022-12-18T02:00:44;98581.09;;;-4.71;75.55
34205;BME280;20471;49.680;20.074;2022-12-18T02:03:11;98582.41;;;-4.71;75.58
34205;BME280;20471;49.680;20.074;2022-12-18T02:05:47;98584.85;;;-4.75;75.52
34205;BME280;20471;49.680;20.074;2022-12-18T02:08:22;98591.82;;;-4.74;75.62
34205;BME280;20471;49.680;20.074;2022-12-18T02:22:29;98608.26;;;-4.54;75.51
34205;BME280;20471;49.680;20.074;2022-12-18T02:27:52;98622.60;;;-4.67;75.28
34205;BME280;20471;49.680;20.074;2022-12-18T02:30:22;98621.87;;;-4.85;75.15
34205;BME280;20471;49.680;20.074;2022-12-18T02:32:50;98630.33;;;-4.87;75.32
34205;BME280;20471;49.680;20.074;2022-12-18T02:35:23;98625.69;;;-4.90;75.27
34205;BME280;20471;49.680;20.074;2022-12-18T02:37:53;98633.03;;;-5.04;75.14
34205;BME280;20471;49.680;20.074;2022-12-18T02:40:23;98642.30;;;-5.13;75.39
34205;BME280;20471;49.680;20.074;2022-12-18T02:42:50;98638.58;;;-5.09;75.56
34205;BME280;20471;49.680;20.074;2022-12-18T02:45:17;98646.42;;;-5.00;75.67
34205;BME280;20471;49.680;20.074;2022-12-18T02:47:47;98646.89;;;-5.00;75.47
34205;BME280;20471;49.680;20.074;2022-12-18T02:50:18;98643.95;;;-5.03;75.51
34205;BME280;20471;49.680;20.074;2022-12-18T02:58:59;98652.19;;;-4.93;75.66
34205;BME280;20471;49.680;20.074;2022-12-18T03:04:16;98658.28;;;-4.84;75.61
34205;BME280;20471;49.680;20.074;2022-12-18T03:06:49;98665.11;;;-4.89;75.36
34205;BME280;20471;49.680;20.074;2022-12-18T03:09:21;98669.77;;;-4.94;75.27
34205;BME280;20471;49.680;20.074;2022-12-18T03:20:25;98691.90;;;-5.29;75.31
34205;BME280;20471;49.680;20.074;2022-12-18T03:22:59;98691.23;;;-5.33;75.40
34205;BME280;20471;49.680;20.074;2022-12-18T03:25:27;98690.97;;;-5.28;75.53
34205;BME280;20471;49.680;20.074;2022-12-18T03:27:56;98694.77;;;-5.25;75.56
34205;BME280;20471;49.680;20.074;2022-12-18T03:30:26;98697.24;;;-5.31;75.38
34205;BME280;20471;49.680;20.074;2022-12-18T03:33:16;98702.16;;;-5.32;75.48
34205;BME280;20471;49.680;20.074;2022-12-18T03:35:51;98700.57;;;-5.27;75.56
34205;BME280;20471;49.680;20.074;2022-12-18T03:38:18;98705.37;;;-5.27;75.53
34205;BME280;20471;49.680;20.074;2022-12-18T03:40:56;98708.77;;;-5.25;75.56
34205;BME280;20471;49.680;20.074;2022-12-18T03:43:52;98703.74;;;-5.21;75.59
34205;BME280;20471;49.680;20.074;2022-12-18T03:49:57;98721.90;;;-5.07;75.48
34205;BME280;20471;49.680;20.074;2022-12-18T03:55:32;98725.19;;;-5.20;75.14
34205;BME280;20471;49.680;20.074;2022-12-18T03:58:01;98730.77;;;-5.26;75.09
34205;BME280;20471;49.680;20.074;2022-12-18T04:00:30;98731.30;;;-5.28;75.22
34205;BME280;20471;49.680;20.074;2022-12-18T04:02:59;98730.06;;;-5.29;75.36
34205;BME280;20471;49.680;20.074;2022-12-18T04:05:29;98727.20;;;-5.25;75.46
34205;BME280;20471;49.680;20.074;2022-12-18T04:07:56;98732.85;;;-5.24;75.43
34205;BME280;20471;49.680;20.074;2022-12-18T04:10:24;98735.61;;;-5.18;75.51
34205;BME280;20471;49.680;20.074;2022-12-18T04:12:50;98733.05;;;-5.11;75.56
34205;BME280;20471;49.680;20.074;2022-12-18T04:15:17;98737.59;;;-5.06;75.49
34205;BME280;20471;49.680;20.074;2022-12-18T04:17:49;98745.67;;;-5.09;75.40
34205;BME280;20471;49.680;20.074;2022-12-18T04:20:16;98750.09;;;-5.10;75.41
34205;BME280;20471;49.680;20.074;2022-12-18T04:22:43;98756.36;;;-5.12;75.41
34205;BME280;20471;49.680;20.074;2022-12-18T04:25:10;98761.23;;;-5.13;75.42
34205;BME280;20471;49.680;20.074;2022-12-18T04:27:38;98767.67;;;-5.10;75.48
34205;BME280;20471;49.680;20.074;2022-12-18T04:30:06;98767.33;;;-5.04;75.59
34205;BME280;20471;49.680;20.074;2022-12-18T04:32:33;98761.56;;;-4.95;75.64
34205;BME280;20471;49.680;20.074;2022-12-18T04:35:01;98766.13;;;-4.90;75.56
34205;BME280;20471;49.680;20.074;2022-12-18T04:37:30;98764.58;;;-4.85;75.46
34205;BME280;20471;49.680;20.074;2022-12-18T04:39:56;98771.44;;;-4.83;75.40
34205;BME280;20471;49.680;20.074;2022-12-18T04:42:23;98770.97;;;-4.82;75.25
34205;BME280;20471;49.680;20.074;2022-12-18T04:44:49;98770.81;;;-4.79;75.29
34205;BME280;20471;49.680;20.074;2022-12-18T04:47:16;98773.21;;;-4.75;75.27
34205;BME280;20471;49.680;20.074;2022-12-18T04:49:43;98779.52;;;-4.70;75.24
34205;BME280;20471;49.680;20.074;2022-12-18T04:52:09;98787.73;;;-4.67;75.22
34205;BME280;20471;49.680;20.074;2022-12-18T04:54:36;98788.13;;;-4.66;75.04
34205;BME280;20471;49.680;20.074;2022-12-18T04:57:03;98794.94;;;-4.62;75.02
34205;BME280;20471;49.680;20.074;2022-12-18T04:59:29;98793.31;;;-4.65;74.80
34205;BME280;20471;49.680;20.074;2022-12-18T05:01:56;98793.39;;;-4.66;74.80
34205;BME280;20471;49.680;20.074;2022-12-18T05:04:23;98793.74;;;-4.73;74.80
34205;BME280;20471;49.680;20.074;2022-12-18T05:06:49;98797.31;;;-4.74;74.92
34205;BME280;20471;49.680;20.074;2022-12-18T05:09:16;98805.37;;;-4.77;74.85
34205;BME280;20471;49.680;20.074;2022-12-18T05:11:42;98804.28;;;-4.81;74.79
34205;BME280;20471;49.680;20.074;2022-12-18T05:14:09;98805.33;;;-4.84;74.90
34205;BME280;20471;49.680;20.074;2022-12-18T05:16:36;98805.60;;;-4.81;74.88
34205;BME280;20471;49.680;20.074;2022-12-18T05:19:02;98804.59;;;-4.79;74.90
34205;BME280;20471;49.680;20.074;2022-12-18T05:21:29;98814.13;;;-4.76;74.76
34205;BME280;20471;49.680;20.074;2022-12-18T05:23:56;98815.28;;;-4.82;74.64
34205;BME280;20471;49.680;20.074;2022-12-18T05:26:22;98816.17;;;-4.90;74.58
34205;BME280;20471;49.680;20.074;2022-12-18T05:28:49;98814.23;;;-4.95;74.61
34205;BME280;20471;49.680;20.074;2022-12-18T05:31:16;98815.55;;;-4.95;74.57
34205;BME280;20471;49.680;20.074;2022-12-18T05:33:42;98820.61;;;-4.99;74.47
34205;BME280;20471;49.680;20.074;2022-12-18T05:36:10;98829.29;;;-4.97;74.56
34205;BME280;20471;49.680;20.074;2022-12-18T05:38:38;98824.22;;;-4.93;74.60
34205;BME280;20471;49.680;20.074;2022-12-18T05:41:06;98833.14;;;-4.87;74.61
34205;BME280;20471;49.680;20.074;2022-12-18T05:43:35;98833.72;;;-4.82;74.60
34205;BME280;20471;49.680;20.074;2022-12-18T05:48:33;98837.41;;;-4.68;74.53
34205;BME280;20471;49.680;20.074;2022-12-18T05:51:06;98847.80;;;-4.65;74.44
34205;BME280;20471;49.680;20.074;2022-12-18T05:53:35;98846.09;;;-4.66;74.21
34205;BME280;20471;49.680;20.074;2022-12-18T05:56:03;98847.95;;;-4.68;74.17
34205;BME280;20471;49.680;20.074;2022-12-18T05:58:32;98844.46;;;-4.69;74.08
34205;BME280;20471;49.680;20.074;2022-12-18T06:01:13;98852.63;;;-4.74;74.07
34205;BME280;20471;49.680;20.074;2022-12-18T06:03:42;98851.70;;;-4.73;74.17
34205;BME280;20471;49.680;20.074;2022-12-18T06:06:17;98853.41;;;-4.72;74.20
34205;BME280;20471;49.680;20.074;2022-12-18T06:08:46;98847.02;;;-4.67;74.13
34205;BME280;20471;49.680;20.074;2022-12-18T06:11:15;98846.86;;;-4.64;73.97
34205;BME280;20471;49.680;20.074;2022-12-18T06:13:43;98856.47;;;-4.63;73.94
34205;BME280;20471;49.680;20.074;2022-12-18T06:16:10;98860.97;;;-4.65;73.86
34205;BME280;20471;49.680;20.074;2022-12-18T06:18:37;98863.45;;;-4.62;73.96
34205;BME280;20471;49.680;20.074;2022-12-18T06:21:03;98865.36;;;-4.57;73.91
34205;BME280;20471;49.680;20.074;2022-12-18T06:23:30;98863.88;;;-4.54;73.87
34205;BME280;20471;49.680;20.074;2022-12-18T06:25:57;98880.63;;;-4.55;73.67
34205;BME280;20471;49.680;20.074;2022-12-18T06:28:24;98880.89;;;-4.60;73.69
34205;BME280;20471;49.680;20.074;2022-12-18T06:30:50;98884.38;;;-4.59;73.81
34205;BME280;20471;49.680;20.074;2022-12-18T06:33:17;98883.41;;;-4.58;73.82
34205;BME280;20471;49.680;20.074;2022-12-18T06:35:44;98887.70;;;-4.64;73.65
34205;BME280;20471;49.680;20.074;2022-12-18T06:38:10;98888.02;;;-4.71;73.75
34205;BME280;20471;49.680;20.074;2022-12-18T06:40:38;98890.30;;;-4.72;73.74
34205;BME280;20471;49.680;20.074;2022-12-18T06:43:06;98894.59;;;-4.71;73.76
34205;BME280;20471;49.680;20.074;2022-12-18T06:45:32;98909.94;;;-4.70;73.80
34205;BME280;20471;49.680;20.074;2022-12-18T06:47:59;98910.59;;;-4.74;73.80
34205;BME280;20471;49.680;20.074;2022-12-18T06:50:26;98904.70;;;-4.79;73.91
34205;BME280;20471;49.680;20.074;2022-12-18T06:52:53;98904.31;;;-4.80;73.96
34205;BME280;20471;49.680;20.074;2022-12-18T06:55:19;98904.70;;;-4.79;74.07
34205;BME280;20471;49.680;20.074;2022-12-18T06:57:46;98910.36;;;-4.78;74.11
34205;BME280;20471;49.680;20.074;2022-12-18T07:00:13;98917.56;;;-4.73;74.15
34205;BME280;20471;49.680;20.074;2022-12-18T07:02:40;98915.91;;;-4.66;74.12
34205;BME280;20471;49.680;20.074;2022-12-18T07:05:07;98923.52;;;-4.60;74.01
34205;BME280;20471;49.680;20.074;2022-12-18T07:07:35;98927.91;;;-4.52;73.88
34205;BME280;20471;49.680;20.074;2022-12-18T07:10:02;98922.71;;;-4.54;73.59
34205;BME280;20471;49.680;20.074;2022-12-18T07:12:29;98929.33;;;-4.62;73.28
34205;BME280;20471;49.680;20.074;2022-12-18T07:14:56;98935.67;;;-4.66;73.45
34205;BME280;20471;49.680;20.074;2022-12-18T07:17:22;98942.66;;;-4.65;73.44
34205;BME280;20471;49.680;20.074;2022-12-18T07:19:49;98940.95;;;-4.66;73.44
34205;BME280;20471;49.680;20.074;2022-12-18T07:22:15;98941.80;;;-4.66;73.47
34205;BME280;20471;49.680;20.074;2022-12-18T07:24:42;98946.22;;;-4.66;73.44
34205;BME280;20471;49.680;20.074;2022-12-18T07:27:09;98947.92;;;-4.65;73.51
34205;BME280;20471;49.680;20.074;2022-12-18T07:29:35;98951.56;;;-4.68;73.45
34205;BME280;20471;49.680;20.074;2022-12-18T07:32:02;98962.41;;;-4.65;73.38
34205;BME280;20471;49.680;20.074;2022-12-18T07:34:29;98962.95;;;-4.67;73.23
34205;BME280;20471;49.680;20.074;2022-12-18T07:36:55;98965.98;;;-4.66;73.31
34205;BME280;20471;49.680;20.074;2022-12-18T07:39:22;98969.70;;;-4.62;73.35
34205;BME280;20471;49.680;20.074;2022-12-18T07:41:49;98968.84;;;-4.62;73.33
34205;BME280;20471;49.680;20.074;2022-12-18T07:44:17;98979.39;;;-4.62;73.16
34205;BME280;20471;49.680;20.074;2022-12-18T07:46:44;98972.73;;;-4.61;73.17
34205;BME280;20471;49.680;20.074;2022-12-18T07:49:10;98975.64;;;-4.58;73.18
34205;BME280;20471;49.680;20.074;2022-12-18T07:51:37;98977.98;;;-4.52;73.21
34205;BME280;20471;49.680;20.074;2022-12-18T07:54:04;98978.22;;;-4.48;73.11
34205;BME280;20471;49.680;20.074;2022-12-18T07:56:30;98978.50;;;-4.46;73.15
34205;BME280;20471;49.680;20.074;2022-12-18T07:58:58;98983.47;;;-4.40;73.18
34205;BME280;20471;49.680;20.074;2022-12-18T08:01:25;98981.92;;;-4.35;73.15
34205;BME280;20471;49.680;20.074;2022-12-18T08:03:52;98982.13;;;-4.31;73.02
34205;BME280;20471;49.680;20.074;2022-12-18T08:06:19;98980.95;;;-4.34;72.94
34205;BME280;20471;49.680;20.074;2022-12-18T08:08:45;98977.86;;;-4.33;72.88
34205;BME280;20471;49.680;20.074;2022-12-18T08:11:12;98984.22;;;-4.29;72.94
34205;BME280;20471;49.680;20.074;2022-12-18T08:13:39;98988.33;;;-4.23;72.88
34205;BME280;20471;49.680;20.074;2022-12-18T08:16:07;98986.55;;;-4.23;72.87
34205;BME280;20471;49.680;20.074;2022-12-18T08:18:36;98983.41;;;-4.14;72.90
34205;BME280;20471;49.680;20.074;2022-12-18T08:23:46;98987.11;;;-4.09;72.46
34205;BME280;20471;49.680;20.074;2022-12-18T08:26:13;98989.63;;;-4.15;72.18
34205;BME280;20471;49.680;20.074;2022-12-18T08:28:41;98985.36;;;-4.17;72.15
34205;BME280;20471;49.680;20.074;2022-12-18T08:31:08;98991.25;;;-4.12;72.28
34205;BME280;20471;49.680;20.074;2022-12-18T08:33:36;98993.08;;;-4.06;72.25
34205;BME280;20471;49.680;20.074;2022-12-18T08:36:05;98989.81;;;-4.02;72.14
34205;BME280;20471;49.680;20.074;2022-12-18T08:38:33;98990.64;;;-3.93;72.13
34205;BME280;20471;49.680;20.074;2022-12-18T08:41:05;98985.67;;;-3.90;71.97
34205;BME280;20471;49.680;20.074;2022-12-18T08:43:34;98995.48;;;-3.85;71.96
34205;BME280;20471;49.680;20.074;2022-12-18T08:46:20;98992.61;;;-3.81;71.90
34205;BME280;20471;49.680;20.074;2022-12-18T08:48:49;98996.48;;;-3.79;71.70
34205;BME280;20471;49.680;20.074;2022-12-18T08:51:17;98992.22;;;-3.82;71.55
34205;BME280;20471;49.680;20.074;2022-12-18T08:53:45;99001.38;;;-3.80;71.44
34205;BME280;20471;49.680;20.074;2022-12-18T08:56:13;99008.83;;;-3.80;71.35
34205;BME280;20471;49.680;20.074;2022-12-18T08:58:41;99005.26;;;-3.79;71.43
34205;BME280;20471;49.680;20.074;2022-12-18T09:01:10;99012.55;;;-3.75;71.40
34205;BME280;20471;49.680;20.074;2022-12-18T09:03:38;99007.30;;;-3.68;71.48
34205;BME280;20471;49.680;20.074;2022-12-18T09:06:06;99014.16;;;-3.57;71.47
34205;BME280;20471;49.680;20.074;2022-12-18T09:08:33;99016.64;;;-3.54;71.27
34205;BME280;20471;49.680;20.074;2022-12-18T09:11:04;99017.80;;;-3.51;71.23
34205;BME280;20471;49.680;20.074;2022-12-18T09:13:31;99018.77;;;-3.45;71.17
34205;BME280;20471;49.680;20.074;2022-12-18T09:15:57;99019.38;;;-3.40;70.97
34205;BME280;20471;49.680;20.074;2022-12-18T09:18:24;99023.92;;;-3.35;70.94
34205;BME280;20471;49.680;20.074;2022-12-18T09:20:51;99026.80;;;-3.23;70.92
34205;BME280;20471;49.680;20.074;2022-12-18T09:23:19;99031.29;;;-3.17;70.78
34205;BME280;20471;49.680;20.074;2022-12-18T09:25:46;99028.13;;;-3.23;70.37
34205;BME280;20471;49.680;20.074;2022-12-18T09:28:15;99032.64;;;-3.26;70.44
34205;BME280;20471;49.680;20.074;2022-12-18T09:30:46;99037.59;;;-3.19;70.50
34205;BME280;20471;49.680;20.074;2022-12-18T09:33:15;99042.10;;;-3.21;70.07
34205;BME280;20471;49.680;20.074;2022-12-18T09:35:43;99043.59;;;-3.24;70.26
34205;BME280;20471;49.680;20.074;2022-12-18T09:38:13;99042.33;;;-3.17;70.45
34205;BME280;20471;49.680;20.074;2022-12-18T09:40:50;99041.03;;;-3.10;70.44
34205;BME280;20471;49.680;20.074;2022-12-18T09:46:11;99033.89;;;-3.01;70.18
34205;BME280;20471;49.680;20.074;2022-12-18T09:48:46;99029.22;;;-2.96;70.19
34205;BME280;20471;49.680;20.074;2022-12-18T09:51:20;99035.73;;;-2.95;70.11
34205;BME280;20471;49.680;20.074;2022-12-18T09:53:54;99033.56;;;-2.95;70.03
34205;BME280;20471;49.680;20.074;2022-12-18T09:56:25;99033.09;;;-2.95;69.88
34205;BME280;20471;49.680;20.074;2022-12-18T09:58:59;99038.24;;;-3.00;69.71
34205;BME280;20471;49.680;20.074;2022-12-18T10:01:27;99043.81;;;-3.05;69.71
34205;BME280;20471;49.680;20.074;2022-12-18T10:03:54;99035.41;;;-3.04;69.67
34205;BME280;20471;49.680;20.074;2022-12-18T10:06:25;99043.97;;;-3.08;69.67
34205;BME280;20471;49.680;20.074;2022-12-18T10:15:19;99040.26;;;-3.12;69.62
34205;BME280;20471;49.680;20.074;2022-12-18T10:18:18;99036.77;;;-3.13;69.47
34205;BME280;20471;49.680;20.074;2022-12-18T10:20:51;99048.84;;;-3.16;69.51
34205;BME280;20471;49.680;20.074;2022-12-18T10:23:39;99043.34;;;-3.20;69.33
34205;BME280;20471;49.680;20.074;2022-12-18T10:26:08;99044.97;;;-3.17;69.64
34205;BME280;20471;49.680;20.074;2022-12-18T10:28:38;99042.52;;;-3.13;69.50
34205;BME280;20471;49.680;20.074;2022-12-18T10:31:15;99042.95;;;-3.05;69.45
34205;BME280;20471;49.680;20.074;2022-12-18T10:33:49;99039.17;;;-3.01;69.27
34205;BME280;20471;49.680;20.074;2022-12-18T10:36:16;99032.09;;;-3.08;69.02
34205;BME280;20471;49.680;20.074;2022-12-18T10:38:42;99043.42;;;-3.06;69.18
34205;BME280;20471;49.680;20.074;2022-12-18T10:49:28;99036.92;;;-3.00;68.94
34205;BME280;20471;49.680;20.074;2022-12-18T10:52:14;99030.84;;;-3.09;68.70
34205;BME280;20471;49.680;20.074;2022-12-18T10:57:36;99036.02;;;-3.15;68.78
34205;BME280;20471;49.680;20.074;2022-12-18T11:00:26;99028.57;;;-3.15;68.75
34205;BME280;20471;49.680;20.074;2022-12-18T11:02:55;99023.17;;;-3.14;68.56
34205;BME280;20471;49.680;20.074;2022-12-18T11:05:26;99021.25;;;-3.26;68.26
34205;BME280;20471;49.680;20.074;2022-12-18T11:07:56;99022.41;;;-3.39;68.39
34205;BME280;20471;49.680;20.074;2022-12-18T11:10:32;99020.18;;;-3.31;68.69
34205;BME280;20471;49.680;20.074;2022-12-18T11:13:23;99014.38;;;-3.21;68.80
34205;BME280;20471;49.680;20.074;2022-12-18T11:15:50;99012.91;;;-3.11;68.76
34205;BME280;20471;49.680;20.074;2022-12-18T11:18:25;99018.41;;;-3.07;68.64
34205;BME280;20471;49.680;20.074;2022-12-18T11:21:01;99014.66;;;-3.03;68.49
34205;BME280;20471;49.680;20.074;2022-12-18T11:23:36;99007.48;;;-3.01;68.44
34205;BME280;20471;49.680;20.074;2022-12-18T11:26:05;99002.02;;;-2.98;68.42
34205;BME280;20471;49.680;20.074;2022-12-18T11:33:51;98995.10;;;-3.08;68.24
34205;BME280;20471;49.680;20.074;2022-12-18T11:36:21;98997.58;;;-3.05;68.29
34205;BME280;20471;49.680;20.074;2022-12-18T11:38:50;99004.09;;;-3.03;68.27
34205;BME280;20471;49.680;20.074;2022-12-18T11:41:31;98991.73;;;-3.03;68.27
34205;BME280;20471;49.680;20.074;2022-12-18T11:44:27;98988.98;;;-3.01;68.25
34205;BME280;20471;49.680;20.074;2022-12-18T11:47:01;98994.56;;;-2.99;68.23
34205;BME280;20471;49.680;20.074;2022-12-18T11:49:34;98991.28;;;-2.95;68.16
34205;BME280;20471;49.680;20.074;2022-12-18T11:52:19;98989.18;;;-3.04;67.94
34205;BME280;20471;49.680;20.074;2022-12-18T11:54:55;98989.18;;;-3.04;68.05
34205;BME280;20471;49.680;20.074;2022-12-18T12:00:02;98982.50;;;-2.96;68.24
34205;BME280;20471;49.680;20.074;2022-12-18T12:03:10;98994.70;;;-2.93;68.11
34205;BME280;20471;49.680;20.074;2022-12-18T12:09:08;99003.73;;;-2.97;67.72
34205;BME280;20471;49.680;20.074;2022-12-18T12:43:38;99015.73;;;-2.62;67.00
34205;BME280;20471;49.680;20.074;2022-12-18T12:46:10;99011.59;;;-2.66;66.82
34205;BME280;20471;49.680;20.074;2022-12-18T12:48:59;99016.50;;;-2.67;66.87
34205;BME280;20471;49.680;20.074;2022-12-18T12:54:03;99027.47;;;-2.59;67.28
34205;BME280;20471;49.680;20.074;2022-12-18T12:56:45;99035.78;;;-2.50;67.07
34205;BME280;20471;49.680;20.074;2022-12-18T13:02:30;99040.44;;;-2.47;66.99
34205;BME280;20471;49.680;20.074;2022-12-18T13:10:32;99059.49;;;-2.56;66.74
34205;BME280;20471;49.680;20.074;2022-12-18T13:13:07;99069.17;;;-2.64;66.56
34205;BME280;20471;49.680;20.074;2022-12-18T13:15:46;99071.33;;;-2.70;66.56
34205;BME280;20471;49.680;20.074;2022-12-18T13:18:33;99077.85;;;-2.69;66.66
34205;BME280;20471;49.680;20.074;2022-12-18T13:21:03;99073.13;;;-2.64;66.57
34205;BME280;20471;49.680;20.074;2022-12-18T13:34:15;99075.22;;;-2.62;66.29
34205;BME280;20471;49.680;20.074;2022-12-18T13:36:42;99075.22;;;-2.62;66.29
34205;BME280;20471;49.680;20.074;2022-12-18T13:41:53;99083.70;;;-2.64;66.42
34205;BME280;20471;49.680;20.074;2022-12-18T13:44:36;99085.41;;;-2.63;66.19
34205;BME280;20471;49.680;20.074;2022-12-18T13:47:27;99075.39;;;-2.65;66.26
34205;BME280;20471;49.680;20.074;2022-12-18T13:49:59;99075.46;;;-2.73;66.01
34205;BME280;20471;49.680;20.074;2022-12-18T13:52:29;99076.84;;;-2.82;66.17
34205;BME280;20471;49.680;20.074;2022-12-18T13:55:03;99074.38;;;-2.85;66.13
34205;BME280;20471;49.680;20.074;2022-12-18T13:57:36;99077.92;;;-2.93;66.25
34205;BME280;20471;49.680;20.074;2022-12-18T14:02:55;99095.02;;;-2.92;66.65
34205;BME280;20471;49.680;20.074;2022-12-18T14:05:29;99100.00;;;-2.94;66.75
34205;BME280;20471;49.680;20.074;2022-12-18T14:08:03;99097.58;;;-2.90;66.80
34205;BME280;20471;49.680;20.074;2022-12-18T14:10:40;99104.52;;;-2.96;66.30
34205;BME280;20471;49.680;20.074;2022-12-18T14:13:10;99102.77;;;-3.20;65.61
34205;BME280;20471;49.680;20.074;2022-12-18T14:15:41;99103.56;;;-3.42;65.75
34205;BME280;20471;49.680;20.074;2022-12-18T14:21:26;99108.29;;;-3.73;66.20
34205;BME280;20471;49.680;20.074;2022-12-18T14:24:12;99111.58;;;-3.85;66.29
34205;BME280;20471;49.680;20.074;2022-12-18T14:26:37;99122.02;;;-4.00;66.21
34205;BME280;20471;49.680;20.074;2022-12-18T14:29:28;99126.61;;;-4.12;66.15
34205;BME280;20471;49.680;20.074;2022-12-18T14:32:14;99131.57;;;-4.23;66.09
34205;BME280;20471;49.680;20.074;2022-12-18T14:34:50;99119.75;;;-4.33;66.30
34205;BME280;20471;49.680;20.074;2022-12-18T14:37:25;99122.08;;;-4.44;66.10
34205;BME280;20471;49.680;20.074;2022-12-18T14:39:58;99125.11;;;-4.60;65.92
34205;BME280;20471;49.680;20.074;2022-12-18T14:42:28;99118.02;;;-4.77;66.02
34205;BME280;20471;49.680;20.074;2022-12-18T14:45:32;99119.99;;;-4.91;66.12
34205;BME280;20471;49.680;20.074;2022-12-18T14:48:05;99127.55;;;-5.02;66.15
34205;BME280;20471;49.680;20.074;2022-12-18T14:50:37;99127.53;;;-5.11;66.28
34205;BME280;20471;49.680;20.074;2022-12-18T14:53:18;99132.98;;;-5.24;66.16
34205;BME280;20471;49.680;20.074;2022-12-18T14:55:53;99137.04;;;-5.35;66.15
34205;BME280;20471;49.680;20.074;2022-12-18T14:58:20;99136.61;;;-5.45;66.12
34205;BME280;20471;49.680;20.074;2022-12-18T15:00:47;99137.40;;;-5.53;66.14
34205;BME280;20471;49.680;20.074;2022-12-18T15:03:17;99135.13;;;-5.61;66.11
34205;BME280;20471;49.680;20.074;2022-12-18T15:05:46;99137.78;;;-5.71;66.16
34205;BME280;20471;49.680;20.074;2022-12-18T15:08:36;99144.44;;;-5.83;65.99
34205;BME280;20471;49.680;20.074;2022-12-18T15:11:23;99143.88;;;-5.99;66.05
34205;BME280;20471;49.680;20.074;2022-12-18T15:13:54;99142.58;;;-6.09;66.15
34205;BME280;20471;49.680;20.074;2022-12-18T15:16:24;99156.13;;;-6.19;66.09
34205;BME280;20471;49.680;20.074;2022-12-18T15:18:52;99158.99;;;-6.25;66.01
34205;BME280;20471;49.680;20.074;2022-12-18T15:21:23;99161.09;;;-6.33;66.04
34205;BME280;20471;49.680;20.074;2022-12-18T15:23:51;99157.95;;;-6.41;66.03
34205;BME280;20471;49.680;20.074;2022-12-18T15:26:22;99163.70;;;-6.53;65.88
34205;BME280;20471;49.680;20.074;2022-12-18T15:28:52;99162.44;;;-6.65;65.93
34205;BME280;20471;49.680;20.074;2022-12-18T15:34:18;99170.69;;;-6.85;65.79
34205;BME280;20471;49.680;20.074;2022-12-18T15:36:50;99162.33;;;-6.95;65.69
34205;BME280;20471;49.680;20.074;2022-12-18T15:39:18;99168.45;;;-7.06;65.57